Time;durP1;ratioP1;P1;durP2;ratioP2;P2;SDS_P1;SDS_P2;PMS_P1;PMS_P2;Temp;Humidity;BMP_temperature;BMP_pressure;BME280_temperature;BME280_humidity;BME280_pressure;Samples;Min_cycle;Max_cycle;Signal;HPM_P1;HPM_P2
2023/04/13 00:00:29;;;;;;;;;;;;;;;9.11;68.93;96787.19;4864368;29;20382;-56
2023/04/13 00:03:17;;;;;;;;;;;;;;;9.07;68.60;96770.00;4891096;29;19928;-56
2023/04/13 00:06:37;;;;;;;;;;;;;;;9.03;68.67;96771.78;4879411;29;19971;-56
2023/04/13 00:09:19;;;;;;;;;;;;;;;8.97;68.80;96764.97;4940135;28;20410;-57
2023/04/13 00:20:54;;;;;;;;;;;;;;;8.87;68.02;96807.56;4960092;28;19925;-56
2023/04/13 00:23:38;;;;;;;;;;;;;;;8.92;67.45;96796.53;5002896;28;19925;-58
2023/04/13 00:26:12;;;;;;;;;;;;;;;8.91;67.21;96805.78;5006965;28;20477;-57
2023/04/13 00:32:22;;;;;;;;;;;;;;;8.79;67.65;96813.81;4959488;28;19972;-54
2023/04/13 00:35:04;;;;;;;;;;;;;;;8.81;67.03;96827.03;4964829;28;20021;-54
2023/04/13 00:38:03;;;;;;;;;;;;;;;8.68;67.10;96828.03;4964651;28;19985;-54
2023/04/13 00:41:25;;;;;;;;;;;;;;;8.78;66.81;96817.63;4990921;28;19925;-54
2023/04/13 00:44:46;;;;;;;;;;;;;;;8.66;67.51;96810.19;4961840;28;19937;-55
2023/04/13 00:47:16;;;;;;;;;;;;;;;8.65;67.33;96814.03;4981088;28;20434;-59
2023/04/13 00:49:46;;;;;;;;;;;;;;;8.69;67.01;96824.22;4981730;28;19926;-55
2023/04/13 00:52:43;;;;;;;;;;;;;;;8.54;67.04;96812.81;4981161;28;19926;-59
2023/04/13 00:56:13;;;;;;;;;;;;;;;8.61;67.39;96813.09;4969773;28;19976;-56
2023/04/13 00:59:20;;;;;;;;;;;;;;;8.45;68.18;96819.38;4956114;28;20024;-55
2023/04/13 01:02:07;;;;;;;;;;;;;;;8.54;67.55;96820.13;4967284;28;20134;-60
2023/04/13 01:05:24;;;;;;;;;;;;;;;8.42;68.54;96828.16;5007753;28;20016;-56
2023/04/13 01:08:17;;;;;;;;;;;;;;;8.38;68.00;96798.22;5005926;28;19929;-57
2023/04/13 01:10:48;;;;;;;;;;;;;;;8.29;68.83;96806.34;4999985;28;20383;-56
2023/04/13 01:13:52;;;;;;;;;;;;;;;8.34;68.01;96814.28;5015661;28;19925;-57
2023/04/13 01:19:58;;;;;;;;;;;;;;;8.35;68.18;96815.84;5024865;28;19967;-60
2023/04/13 01:22:30;;;;;;;;;;;;;;;8.18;69.46;96826.72;5025259;28;19929;-56
2023/04/13 01:25:43;;;;;;;;;;;;;;;;;;;;;
2023/04/13 01:29:19;;;;;;;;;;;;;;;8.25;69.56;96823.53;5008941;28;19932;-56
2023/04/13 01:31:54;;;;;;;;;;;;;;;8.35;68.61;96826.69;5024365;28;19940;-55
2023/04/13 01:35:20;;;;;;;;;;;;;;;8.11;68.56;96826.44;5006434;28;20414;-56
2023/04/13 01:38:47;;;;;;;;;;;;;;;8.14;68.91;96817.66;5013455;28;20314;-55
2023/04/13 01:41:16;;;;;;;;;;;;;;;8.12;69.44;96822.63;5038796;28;19984;-55
2023/04/13 01:44:12;;;;;;;;;;;;;;;8.15;69.58;96843.63;5028563;28;20318;-56
2023/04/13 01:47:01;;;;;;;;;;;;;;;8.07;69.57;96841.72;5025963;28;19978;-55
2023/04/13 01:53:34;;;;;;;;;;;;;;;8.13;69.40;96837.72;5033200;28;19960;-56
2023/04/13 01:56:25;;;;;;;;;;;;;;;8.07;69.36;96855.25;5045044;28;19926;-56
2023/04/13 01:59:05;;;;;;;;;;;;;;;7.99;70.38;96862.25;5030100;28;19929;-55
2023/04/13 02:01:58;;;;;;;;;;;;;;;7.92;70.40;96866.56;5055255;28;19928;-56
2023/04/13 02:04:45;;;;;;;;;;;;;;;7.95;70.02;96865.94;5043733;28;19924;-56
2023/04/13 02:07:56;;;;;;;;;;;;;;;8.05;70.09;96857.47;5037493;28;19932;-55
2023/04/13 02:10:52;;;;;;;;;;;;;;;8.04;69.87;96850.47;5027059;28;19967;-59
2023/04/13 02:13:56;;;;;;;;;;;;;;;8.07;69.69;96837.09;5005316;28;19933;-55
2023/04/13 02:16:27;;;;;;;;;;;;;;;7.87;70.79;96835.06;5008506;28;20406;-56
2023/04/13 02:19:33;;;;;;;;;;;;;;;7.87;71.20;96821.53;5013451;28;19932;-57
2023/04/13 02:22:22;;;;;;;;;;;;;;;7.84;70.59;96817.56;5014772;28;19964;-56
2023/04/13 02:24:54;;;;;;;;;;;;;;;7.81;70.67;96812.00;5011853;28;19925;-56
2023/04/13 02:27:23;;;;;;;;;;;;;;;7.74;70.78;96809.78;5018113;28;20326;-56
2023/04/13 02:29:51;;;;;;;;;;;;;;;7.65;71.38;96813.59;5014201;28;20004;-55
2023/04/13 02:32:19;;;;;;;;;;;;;;;7.75;71.27;96807.88;5012104;28;19965;-60
2023/04/13 02:34:47;;;;;;;;;;;;;;;7.67;71.56;96797.84;5009440;28;19929;-55
2023/04/13 02:37:15;;;;;;;;;;;;;;;7.61;71.54;96799.91;5012722;28;19929;-56
2023/04/13 02:39:43;;;;;;;;;;;;;;;7.53;72.22;96801.53;5053253;28;19925;-56
2023/04/13 02:42:12;;;;;;;;;;;;;;;7.58;72.07;96812.19;5055022;28;19931;-55
2023/04/13 02:44:40;;;;;;;;;;;;;;;7.72;71.18;96816.63;5069068;28;19936;-57
2023/04/13 02:47:08;;;;;;;;;;;;;;;7.64;71.86;96817.44;5059052;28;19967;-56
2023/04/13 02:49:36;;;;;;;;;;;;;;;7.58;72.35;96819.50;5074175;28;19955;-56
2023/04/13 02:52:14;;;;;;;;;;;;;;;7.57;72.50;96837.63;5069867;28;19924;-56
2023/04/13 02:54:53;;;;;;;;;;;;;;;7.53;72.87;96833.97;5064154;28;20316;-57
2023/04/13 02:57:27;;;;;;;;;;;;;;;7.50;73.32;96823.78;5049629;28;19952;-55
2023/04/13 02:59:57;;;;;;;;;;;;;;;7.52;73.50;96843.19;5050560;28;19967;-60
2023/04/13 03:02:34;;;;;;;;;;;;;;;7.62;72.53;96831.28;5055701;28;19925;-55
2023/04/13 03:05:05;;;;;;;;;;;;;;;7.50;72.61;96848.09;5063581;28;19925;-55
2023/04/13 03:07:33;;;;;;;;;;;;;;;7.59;72.56;96838.09;5063418;28;19936;-56
2023/04/13 03:10:04;;;;;;;;;;;;;;;7.60;72.53;96850.50;5065403;28;19928;-55
2023/04/13 03:12:33;;;;;;;;;;;;;;;7.53;72.75;96849.38;5060303;28;19932;-55
2023/04/13 03:15:02;;;;;;;;;;;;;;;7.56;72.87;96849.56;5073638;28;19936;-59
2023/04/13 03:17:31;;;;;;;;;;;;;;;7.62;72.60;96847.50;5045235;28;19925;-56
2023/04/13 03:19:59;;;;;;;;;;;;;;;7.57;72.76;96853.84;5048845;28;20302;-56
2023/04/13 03:22:29;;;;;;;;;;;;;;;7.62;72.29;96855.59;5065221;28;19952;-56
2023/04/13 03:25:02;;;;;;;;;;;;;;;7.51;72.91;96851.59;5064911;28;19928;-56
2023/04/13 03:27:36;;;;;;;;;;;;;;;7.61;72.57;96859.38;5044311;28;19964;-56
2023/04/13 03:30:05;;;;;;;;;;;;;;;7.54;72.61;96867.19;5031214;28;19936;-61
2023/04/13 03:32:40;;;;;;;;;;;;;;;7.44;73.08;96872.91;5053020;28;19968;-55
2023/04/13 03:35:09;;;;;;;;;;;;;;;7.43;73.33;96871.31;5064070;28;20378;-56
2023/04/13 03:37:41;;;;;;;;;;;;;;;7.42;73.44;96875.91;5067996;28;20394;-56
2023/04/13 03:40:26;;;;;;;;;;;;;;;7.37;73.69;96872.56;5053559;28;19978;-55
2023/04/13 03:42:56;;;;;;;;;;;;;;;7.41;73.65;96873.53;5049915;28;20003;-55
2023/04/13 03:45:29;;;;;;;;;;;;;;;7.40;73.55;96880.03;5062704;28;19931;-56
2023/04/13 03:48:00;;;;;;;;;;;;;;;7.36;73.51;96882.59;5058780;28;19924;-56
2023/04/13 03:50:28;;;;;;;;;;;;;;;7.28;73.80;96881.44;5069074;28;19978;-56
2023/04/13 03:52:56;;;;;;;;;;;;;;;7.21;74.26;96877.63;5052899;28;19928;-55
2023/04/13 03:55:24;;;;;;;;;;;;;;;7.24;73.79;96885.09;5064283;28;20413;-56
2023/04/13 03:57:55;;;;;;;;;;;;;;;7.19;74.23;96883.34;5061372;28;20385;-56
2023/04/13 04:00:28;;;;;;;;;;;;;;;7.27;73.81;96889.88;5041127;28;19951;-56
2023/04/13 04:03:08;;;;;;;;;;;;;;;7.19;73.68;96886.06;5064600;28;19957;-57
2023/04/13 04:05:48;;;;;;;;;;;;;;;7.17;73.87;96887.47;5067580;28;20411;-56
2023/04/13 04:08:16;;;;;;;;;;;;;;;7.17;74.00;96890.16;5072789;28;20298;-55
2023/04/13 04:10:45;;;;;;;;;;;;;;;7.15;73.68;96895.88;5069207;28;19924;-56
2023/04/13 04:13:18;;;;;;;;;;;;;;;7.32;72.53;96887.03;5072571;28;19924;-56
2023/04/13 04:15:51;;;;;;;;;;;;;;;7.29;72.07;96899.25;5066780;28;19947;-56
2023/04/13 04:18:19;;;;;;;;;;;;;;;7.41;70.65;96901.34;5056259;28;20446;-56
2023/04/13 04:20:48;;;;;;;;;;;;;;;7.34;71.16;96906.41;5073779;28;19961;-57
2023/04/13 04:23:17;;;;;;;;;;;;;;;7.37;70.29;96899.59;5078118;28;19970;-56
2023/04/13 04:25:58;;;;;;;;;;;;;;;7.48;69.21;96900.88;5067720;28;19929;-61
2023/04/13 04:28:37;;;;;;;;;;;;;;;7.31;70.08;96897.03;5070830;28;19925;-63
2023/04/13 04:31:09;;;;;;;;;;;;;;;7.53;69.27;96898.03;5075987;28;19933;-56
2023/04/13 04:33:43;;;;;;;;;;;;;;;7.46;69.15;96893.09;5068883;28;19931;-56
2023/04/13 04:36:15;;;;;;;;;;;;;;;7.29;69.14;96893.03;5064410;28;19928;-56
2023/04/13 04:38:56;;;;;;;;;;;;;;;7.26;70.14;96893.69;5062501;28;19924;-56
2023/04/13 04:41:26;;;;;;;;;;;;;;;7.36;69.97;96896.09;5069615;28;20006;-57
2023/04/13 04:44:01;;;;;;;;;;;;;;;7.41;69.22;96892.47;5070435;28;19928;-58
2023/04/13 04:46:40;;;;;;;;;;;;;;;7.50;69.30;96890.53;5059455;28;19929;-58
2023/04/13 04:49:11;;;;;;;;;;;;;;;7.61;68.71;96894.53;5045879;28;20400;-58
2023/04/13 04:51:39;;;;;;;;;;;;;;;7.55;68.07;96895.78;5045837;28;19924;-57
2023/04/13 04:54:08;;;;;;;;;;;;;;;7.61;68.12;96889.13;5040919;28;19933;-57
2023/04/13 04:56:36;;;;;;;;;;;;;;;7.59;68.68;96896.75;5040087;28;19932;-57
2023/04/13 04:59:05;;;;;;;;;;;;;;;7.64;67.86;96899.31;5038771;28;19928;-57
2023/04/13 05:01:45;;;;;;;;;;;;;;;7.88;65.94;96912.34;5039417;28;19925;-57
2023/04/13 05:04:15;;;;;;;;;;;;;;;7.79;66.95;96915.06;5050869;28;19932;-57
2023/04/13 05:06:43;;;;;;;;;;;;;;;7.88;66.65;96910.47;5046444;28;19932;-58
2023/04/13 05:09:17;;;;;;;;;;;;;;;7.80;66.55;96911.25;5049572;28;19924;-59
2023/04/13 05:11:50;;;;;;;;;;;;;;;7.86;66.24;96920.00;5054117;28;19929;-57
2023/04/13 05:14:19;;;;;;;;;;;;;;;7.79;66.95;96923.19;5046600;28;19928;-57
2023/04/13 05:16:50;;;;;;;;;;;;;;;7.82;66.95;96921.75;5040352;28;19929;-57
2023/04/13 05:19:25;;;;;;;;;;;;;;;7.69;67.40;96920.78;5051721;28;19952;-57
2023/04/13 05:22:01;;;;;;;;;;;;;;;7.77;66.02;96919.97;5060507;28;19947;-61
2023/04/13 05:24:35;;;;;;;;;;;;;;;7.83;65.99;96918.75;5046070;28;20002;-58
2023/04/13 05:27:10;;;;;;;;;;;;;;;7.76;66.25;96934.63;5053201;28;19924;-57
2023/04/13 05:29:39;;;;;;;;;;;;;;;7.69;66.28;96934.31;5055862;28;19929;-57
2023/04/13 05:32:09;;;;;;;;;;;;;;;7.76;65.78;96925.72;5046170;28;19948;-58
2023/04/13 05:34:37;;;;;;;;;;;;;;;7.73;65.25;96937.19;5048379;28;19931;-58
2023/04/13 05:37:10;;;;;;;;;;;;;;;7.67;65.15;96928.44;5047461;28;19972;-57
2023/04/13 05:39:38;;;;;;;;;;;;;;;7.82;63.91;96924.44;5049088;28;20016;-57
2023/04/13 05:42:07;;;;;;;;;;;;;;;7.91;63.20;96935.28;5050821;28;19931;-58
2023/04/13 05:44:40;;;;;;;;;;;;;;;7.96;63.57;96943.25;5053572;28;19935;-56
2023/04/13 05:47:09;;;;;;;;;;;;;;;8.07;63.05;96936.41;5053088;28;20296;-57
2023/04/13 05:49:38;;;;;;;;;;;;;;;8.20;62.76;96946.25;5052226;28;19928;-56
2023/04/13 05:52:06;;;;;;;;;;;;;;;8.20;62.01;96932.72;5047909;28;19932;-59
2023/04/13 05:54:52;;;;;;;;;;;;;;;8.21;61.06;96928.91;5046650;28;19925;-60
2023/04/13 05:57:22;;;;;;;;;;;;;;;8.23;61.55;96932.09;5055868;28;19924;-57
2023/04/13 05:59:53;;;;;;;;;;;;;;;8.31;60.32;96925.06;5052288;28;20381;-56
2023/04/13 06:02:26;;;;;;;;;;;;;;;8.28;60.91;96923.00;5051739;28;19960;-57
2023/04/13 06:04:55;;;;;;;;;;;;;;;8.31;61.18;96928.59;5066647;28;19943;-57
2023/04/13 06:07:23;;;;;;;;;;;;;;;8.49;59.97;96923.19;5056193;28;19924;-57
2023/04/13 06:09:51;;;;;;;;;;;;;;;8.59;59.83;96920.94;5075378;28;19931;-57
2023/04/13 06:12:19;;;;;;;;;;;;;;;8.61;59.79;96920.59;5055498;28;19931;-56
2023/04/13 06:14:47;;;;;;;;;;;;;;;8.69;59.74;96921.72;5053700;28;20443;-57
2023/04/13 06:17:15;;;;;;;;;;;;;;;8.76;58.65;96928.19;5046051;28;19937;-57
2023/04/13 06:19:44;;;;;;;;;;;;;;;8.82;57.55;96934.25;5045146;28;19924;-56
2023/04/13 06:22:12;;;;;;;;;;;;;;;8.73;58.21;96928.84;5053036;28;20429;-57
2023/04/13 06:24:40;;;;;;;;;;;;;;;8.95;56.55;96932.44;5049778;28;19936;-56
2023/04/13 06:27:11;;;;;;;;;;;;;;;8.82;57.50;96937.75;5063236;28;19924;-57
2023/04/13 06:29:43;;;;;;;;;;;;;;;8.77;57.08;96940.63;5059328;28;19975;-58
2023/04/13 06:32:12;;;;;;;;;;;;;;;8.77;57.76;96947.94;5046229;28;20412;-56
2023/04/13 06:34:40;;;;;;;;;;;;;;;9.04;57.87;96944.84;5057719;28;20370;-57
2023/04/13 06:37:10;;;;;;;;;;;;;;;9.10;57.71;96950.88;5059251;28;19925;-56
2023/04/13 06:39:47;;;;;;;;;;;;;;;9.26;55.85;96956.53;5055207;28;19986;-57
2023/04/13 06:42:15;;;;;;;;;;;;;;;9.54;56.36;96956.91;5060791;28;19925;-57
2023/04/13 06:44:57;;;;;;;;;;;;;;;9.61;54.47;96951.75;5049401;28;19929;-57
2023/04/13 06:47:31;;;;;;;;;;;;;;;9.68;54.91;96952.00;5041781;28;20352;-57
2023/04/13 06:50:02;;;;;;;;;;;;;;;9.79;54.63;96945.06;5042154;28;19932;-58
2023/04/13 06:52:32;;;;;;;;;;;;;;;9.69;54.47;96940.84;5047975;28;20351;-57
2023/04/13 06:55:00;;;;;;;;;;;;;;;9.74;53.93;96941.75;5027241;28;19932;-57
2023/04/13 06:57:33;;;;;;;;;;;;;;;9.78;53.17;96940.00;5031574;28;19932;-57
2023/04/13 07:00:00;;;;;;;;;;;;;;;9.78;52.57;96935.34;5034519;28;19947;-57
2023/04/13 07:02:29;;;;;;;;;;;;;;;9.80;53.60;96954.00;5053669;28;19925;-57
2023/04/13 07:04:58;;;;;;;;;;;;;;;9.77;53.62;96944.63;5035926;28;20366;-57
2023/04/13 07:07:27;;;;;;;;;;;;;;;9.80;53.14;96959.44;5029996;28;20012;-57
2023/04/13 07:09:57;;;;;;;;;;;;;;;10.01;52.79;96959.44;5040447;28;19957;-57
2023/04/13 07:12:27;;;;;;;;;;;;;;;10.10;53.04;96954.75;5063941;28;19932;-57
2023/04/13 07:14:55;;;;;;;;;;;;;;;10.09;53.30;96956.69;5038275;28;19925;-57
2023/04/13 07:17:24;;;;;;;;;;;;;;;10.30;52.87;96964.84;5056240;28;19925;-57
2023/04/13 07:19:52;;;;;;;;;;;;;;;10.34;51.97;96968.50;5031234;28;20013;-59
2023/04/13 07:22:20;;;;;;;;;;;;;;;10.28;51.07;96969.84;5032674;28;19936;-56
2023/04/13 07:24:50;;;;;;;;;;;;;;;10.32;52.43;96965.31;5059853;28;19926;-57
2023/04/13 07:27:21;;;;;;;;;;;;;;;10.40;51.17;96964.44;5031599;28;19928;-57
2023/04/13 07:29:50;;;;;;;;;;;;;;;10.36;51.39;96971.66;5027813;28;19928;-56
2023/04/13 07:32:22;;;;;;;;;;;;;;;10.49;51.28;96967.06;5022452;28;19946;-57
2023/04/13 07:35:00;;;;;;;;;;;;;;;10.51;50.71;96972.97;5039903;28;19963;-57
2023/04/13 07:37:30;;;;;;;;;;;;;;;10.55;51.44;96973.13;5025698;28;19932;-57
2023/04/13 07:39:59;;;;;;;;;;;;;;;10.45;49.28;96975.09;5029159;28;19932;-57
2023/04/13 07:42:30;;;;;;;;;;;;;;;10.50;49.17;96984.97;5032967;28;20086;-56
2023/04/13 07:44:58;;;;;;;;;;;;;;;10.36;49.61;96990.66;5026870;28;19935;-56
2023/04/13 07:47:28;;;;;;;;;;;;;;;10.08;50.31;96981.44;5030172;28;19928;-57
2023/04/13 07:50:04;;;;;;;;;;;;;;;10.13;50.45;96990.19;5023937;28;19925;-57
2023/04/13 07:52:34;;;;;;;;;;;;;;;10.23;50.63;96989.81;5045334;28;19925;-57
2023/04/13 07:55:02;;;;;;;;;;;;;;;10.25;50.11;96986.78;5050034;28;19925;-57
2023/04/13 07:57:38;;;;;;;;;;;;;;;10.08;50.38;96986.88;5052517;28;19924;-57
2023/04/13 08:00:07;;;;;;;;;;;;;;;10.13;50.91;96984.75;5049744;28;19925;-58
2023/04/13 08:02:44;;;;;;;;;;;;;;;10.14;50.82;96993.69;5065015;28;19924;-58
2023/04/13 08:05:17;;;;;;;;;;;;;;;10.00;49.57;96990.44;5056804;28;19936;-58
2023/04/13 08:07:48;;;;;;;;;;;;;;;9.95;50.85;96994.13;5056632;28;19928;-57
2023/04/13 08:10:16;;;;;;;;;;;;;;;10.07;51.00;97007.00;5076935;28;19932;-57
2023/04/13 08:12:46;;;;;;;;;;;;;;;10.07;49.86;96998.84;5058867;28;19928;-58
2023/04/13 08:15:18;;;;;;;;;;;;;;;10.07;49.45;96990.72;5062873;28;19935;-60
2023/04/13 08:17:46;;;;;;;;;;;;;;;10.11;50.19;96995.13;5074201;28;20423;-58
2023/04/13 08:20:15;;;;;;;;;;;;;;;10.18;50.23;96994.63;5072558;28;19978;-57
2023/04/13 08:22:44;;;;;;;;;;;;;;;10.21;49.26;96996.66;5058012;28;19929;-57
2023/04/13 08:25:12;;;;;;;;;;;;;;;10.13;49.98;96995.63;5063237;28;19928;-57
2023/04/13 08:27:41;;;;;;;;;;;;;;;10.14;49.86;96993.69;5070574;28;20377;-57
2023/04/13 08:30:14;;;;;;;;;;;;;;;10.09;50.65;96989.25;5060250;28;19928;-57
2023/04/13 08:32:49;;;;;;;;;;;;;;;9.92;50.33;96994.81;5061388;28;19929;-57
2023/04/13 08:35:18;;;;;;;;;;;;;;;9.82;51.14;97000.59;5067948;28;19967;-58
2023/04/13 08:37:47;;;;;;;;;;;;;;;9.84;51.70;96987.50;5054523;28;19929;-57
2023/04/13 08:40:15;;;;;;;;;;;;;;;10.01;51.48;96997.44;5062979;28;19924;-58
2023/04/13 08:42:44;;;;;;;;;;;;;;;10.00;50.44;96996.66;5046046;28;19984;-57
2023/04/13 08:45:14;;;;;;;;;;;;;;;10.07;50.61;96991.50;5050924;28;19933;-57
2023/04/13 08:47:48;;;;;;;;;;;;;;;10.32;50.92;96984.31;5078814;28;19931;-59
2023/04/13 08:50:18;;;;;;;;;;;;;;;10.65;49.35;96992.50;5062972;28;19934;-60
2023/04/13 08:52:50;;;;;;;;;;;;;;;10.91;49.10;96989.50;5063938;28;19924;-57
2023/04/13 08:55:18;;;;;;;;;;;;;;;10.78;49.03;96974.31;5070098;28;19940;-59
2023/04/13 08:57:49;;;;;;;;;;;;;;;10.75;48.72;96975.75;5061841;28;19960;-58
2023/04/13 09:00:20;;;;;;;;;;;;;;;10.81;48.54;96973.63;5046312;28;19928;-57
2023/04/13 09:02:57;;;;;;;;;;;;;;;11.04;48.45;96978.69;5053770;28;20405;-60
2023/04/13 09:05:32;;;;;;;;;;;;;;;11.32;48.29;96987.00;5055016;28;19928;-57
2023/04/13 09:08:03;;;;;;;;;;;;;;;11.64;47.22;96982.59;5065576;28;19925;-57
2023/04/13 09:10:32;;;;;;;;;;;;;;;11.67;47.28;96979.19;5049267;28;19972;-57
2023/04/13 09:13:00;;;;;;;;;;;;;;;11.68;47.60;96978.84;5053106;28;19931;-57
2023/04/13 09:15:32;;;;;;;;;;;;;;;11.65;47.42;96976.00;5048490;28;19932;-57
2023/04/13 09:18:30;;;;;;;;;;;;;;;11.54;46.91;96973.75;5049408;28;20385;-58
2023/04/13 09:21:04;;;;;;;;;;;;;;;11.49;46.71;96979.41;5066954;28;19928;-58
2023/04/13 09:23:32;;;;;;;;;;;;;;;11.25;47.19;96976.69;5067310;28;19948;-57
2023/04/13 09:26:06;;;;;;;;;;;;;;;11.11;47.00;96987.06;5070335;28;19925;-58
2023/04/13 09:28:34;;;;;;;;;;;;;;;10.98;47.01;96987.06;5070379;28;20280;-57
2023/04/13 09:31:04;;;;;;;;;;;;;;;10.98;48.63;96981.63;5061917;28;19932;-57
2023/04/13 09:33:34;;;;;;;;;;;;;;;10.90;47.79;96985.22;5063004;28;19925;-57
2023/04/13 09:36:09;;;;;;;;;;;;;;;10.71;47.64;96976.78;5070600;28;19931;-57
2023/04/13 09:38:37;;;;;;;;;;;;;;;10.74;47.95;96978.81;5056671;28;19924;-60
2023/04/13 09:41:06;;;;;;;;;;;;;;;10.72;48.56;96983.81;5063551;28;19928;-58
2023/04/13 09:43:34;;;;;;;;;;;;;;;10.86;47.93;96984.28;5064073;28;19959;-58
2023/04/13 09:46:04;;;;;;;;;;;;;;;10.75;47.32;96972.25;5057504;28;19925;-58
2023/04/13 09:48:32;;;;;;;;;;;;;;;10.82;48.41;96983.41;5050719;28;19928;-58
2023/04/13 09:51:00;;;;;;;;;;;;;;;10.87;47.97;96985.09;5060707;28;19979;-58
2023/04/13 09:53:28;;;;;;;;;;;;;;;10.81;47.26;96981.78;5050969;28;20348;-58
2023/04/13 09:55:57;;;;;;;;;;;;;;;10.63;46.07;96985.81;5062652;28;19924;-57
2023/04/13 09:58:25;;;;;;;;;;;;;;;10.74;45.81;96989.69;5064770;28;19924;-58
2023/04/13 10:00:53;;;;;;;;;;;;;;;10.98;45.35;96987.06;5063810;28;19975;-58
2023/04/13 10:03:22;;;;;;;;;;;;;;;11.01;45.57;96997.25;5061152;28;19931;-58
2023/04/13 10:05:51;;;;;;;;;;;;;;;11.01;45.70;96989.09;5071072;28;19976;-57
2023/04/13 10:08:27;;;;;;;;;;;;;;;10.88;45.73;96984.75;5062992;28;19960;-57
2023/04/13 10:10:58;;;;;;;;;;;;;;;11.02;46.37;96981.72;5068426;28;20110;-58
2023/04/13 10:13:28;;;;;;;;;;;;;;;11.36;45.92;96975.09;5075101;28;19970;-58
2023/04/13 10:16:03;;;;;;;;;;;;;;;11.37;45.09;96981.34;5065457;28;19947;-58
2023/04/13 10:18:35;;;;;;;;;;;;;;;11.51;45.43;96974.44;5092966;28;20384;-59
2023/04/13 10:21:03;;;;;;;;;;;;;;;11.38;44.86;96983.72;5085468;28;19929;-58
2023/04/13 10:23:32;;;;;;;;;;;;;;;11.26;44.83;96983.72;5070168;28;19947;-56
2023/04/13 10:26:02;;;;;;;;;;;;;;;11.27;44.87;96988.00;5073742;28;19963;-56
2023/04/13 10:28:30;;;;;;;;;;;;;;;11.17;45.89;96988.44;5060998;28;19931;-58
2023/04/13 10:30:58;;;;;;;;;;;;;;;11.08;45.69;96985.03;5058559;28;20304;-56
2023/04/13 10:33:30;;;;;;;;;;;;;;;10.85;46.37;96990.84;5073711;28;20289;-58
2023/04/13 10:36:00;;;;;;;;;;;;;;;10.69;46.46;96987.19;5059811;28;19928;-56
2023/04/13 10:38:28;;;;;;;;;;;;;;;10.74;46.88;96990.47;5063329;28;19970;-58
2023/04/13 10:40:57;;;;;;;;;;;;;;;10.70;46.78;96988.75;5072153;28;19931;-57
2023/04/13 10:43:26;;;;;;;;;;;;;;;10.79;46.11;96977.81;5064242;28;19925;-57
2023/04/13 10:46:07;;;;;;;;;;;;;;;11.01;46.84;96983.66;5054882;28;19956;-57
2023/04/13 10:48:36;;;;;;;;;;;;;;;11.24;46.20;96973.19;5059993;28;19931;-56
2023/04/13 10:51:05;;;;;;;;;;;;;;;11.25;45.62;96965.81;5070511;28;19950;-56
2023/04/13 10:53:34;;;;;;;;;;;;;;;11.28;45.97;96967.84;5068370;28;19925;-56
2023/04/13 10:56:01;;;;;;;;;;;;;;;11.24;45.65;96969.66;5053431;28;20447;-59
2023/04/13 10:58:31;;;;;;;;;;;;;;;11.09;46.04;96976.53;5068432;28;19932;-57
2023/04/13 11:00:59;;;;;;;;;;;;;;;11.04;46.33;96975.97;5052002;28;19933;-57
2023/04/13 11:03:30;;;;;;;;;;;;;;;10.94;46.64;96977.97;5062049;28;19928;-56
2023/04/13 11:06:00;;;;;;;;;;;;;;;10.85;47.35;96988.13;5072565;28;19951;-57
2023/04/13 11:08:29;;;;;;;;;;;;;;;10.72;47.14;96991.97;5071975;28;19928;-56
2023/04/13 11:10:57;;;;;;;;;;;;;;;10.48;46.96;96985.28;5058479;28;19925;-56
2023/04/13 11:13:25;;;;;;;;;;;;;;;10.55;46.79;96983.97;5069308;28;19970;-57
2023/04/13 11:16:00;;;;;;;;;;;;;;;10.84;46.11;96981.13;5060224;28;19924;-57
2023/04/13 11:18:28;;;;;;;;;;;;;;;10.99;45.91;96977.78;5074014;28;19935;-57
2023/04/13 11:20:56;;;;;;;;;;;;;;;11.19;45.67;96969.88;5074101;28;19924;-58
2023/04/13 11:23:26;;;;;;;;;;;;;;;11.41;45.60;96966.72;5075370;28;19932;-57
2023/04/13 11:25:56;;;;;;;;;;;;;;;11.51;44.15;96957.31;5061437;28;19992;-57
2023/04/13 11:28:25;;;;;;;;;;;;;;;11.54;44.68;96949.25;5066516;28;19925;-57
2023/04/13 11:30:54;;;;;;;;;;;;;;;11.58;44.61;96948.59;5062560;28;20396;-57
2023/04/13 11:33:25;;;;;;;;;;;;;;;11.93;44.52;96935.28;5061345;28;19925;-57
2023/04/13 11:35:53;;;;;;;;;;;;;;;12.11;43.74;96931.19;5064336;28;19932;-57
2023/04/13 11:38:21;;;;;;;;;;;;;;;12.33;43.65;96938.03;5059995;28;19924;-57
2023/04/13 11:40:49;;;;;;;;;;;;;;;12.39;43.35;96936.63;5069756;28;19967;-57
2023/04/13 11:43:21;;;;;;;;;;;;;;;12.20;43.50;96945.47;5065508;28;19928;-57
2023/04/13 11:45:49;;;;;;;;;;;;;;;11.98;43.63;96941.28;5050883;28;19958;-58
2023/04/13 11:48:17;;;;;;;;;;;;;;;11.86;44.42;96941.31;5058087;28;19929;-57
2023/04/13 11:50:45;;;;;;;;;;;;;;;11.65;44.54;96948.81;5069223;28;19925;-56
2023/04/13 11:53:13;;;;;;;;;;;;;;;11.42;44.48;96957.44;5057782;28;19986;-57
2023/04/13 11:55:41;;;;;;;;;;;;;;;11.36;44.74;96950.63;5060506;28;20283;-57
2023/04/13 11:58:21;;;;;;;;;;;;;;;10.75;48.01;96958.66;5062594;28;20389;-56
2023/04/13 12:00:48;;;;;;;;;;;;;;;10.48;49.22;96965.47;5061544;28;19955;-56
2023/04/13 12:03:17;;;;;;;;;;;;;;;10.43;50.10;96971.13;5059064;28;19924;-56
2023/04/13 12:05:48;;;;;;;;;;;;;;;10.39;50.79;96970.22;5056130;28;20007;-57
2023/04/13 12:08:20;;;;;;;;;;;;;;;10.20;51.32;96970.66;5063449;28;19993;-56
2023/04/13 12:10:54;;;;;;;;;;;;;;;10.32;51.84;96964.50;5056509;28;19932;-57
2023/04/13 12:13:44;;;;;;;;;;;;;;;10.52;51.38;96973.78;5071054;28;19931;-57
2023/04/13 12:16:24;;;;;;;;;;;;;;;10.80;49.99;96965.81;5048147;28;19928;-58
2023/04/13 12:19:11;;;;;;;;;;;;;;;11.05;49.71;96963.97;5068266;28;19929;-57
2023/04/13 12:21:49;;;;;;;;;;;;;;;11.35;49.25;96962.66;5074607;28;19936;-57
2023/04/13 12:24:30;;;;;;;;;;;;;;;11.52;48.94;96965.13;5069743;28;20507;-57
2023/04/13 12:27:01;;;;;;;;;;;;;;;11.52;48.26;96962.41;5068876;28;19929;-57
2023/04/13 12:29:47;;;;;;;;;;;;;;;11.42;47.30;96962.06;5071222;28;19932;-57
2023/04/13 12:32:15;;;;;;;;;;;;;;;11.44;46.09;96960.59;5061231;28;19925;-56
2023/04/13 12:34:43;;;;;;;;;;;;;;;11.52;47.00;96962.41;5068831;28;19924;-57
2023/04/13 12:37:11;;;;;;;;;;;;;;;11.56;47.46;96957.09;5063541;28;20233;-57
2023/04/13 12:39:41;;;;;;;;;;;;;;;11.48;47.74;96966.16;5063006;28;20393;-57
2023/04/13 12:42:09;;;;;;;;;;;;;;;11.22;47.74;96958.31;5070336;28;19928;-57
2023/04/13 12:44:37;;;;;;;;;;;;;;;11.08;48.42;96958.66;5061455;28;19924;-57
2023/04/13 12:47:07;;;;;;;;;;;;;;;10.96;49.09;96970.28;5064566;28;19924;-56
2023/04/13 12:49:35;;;;;;;;;;;;;;;10.77;51.03;96974.66;5065649;28;20422;-57
2023/04/13 12:52:03;;;;;;;;;;;;;;;10.67;54.31;96975.88;5049773;28;19975;-58
2023/04/13 12:54:31;;;;;;;;;;;;;;;10.45;56.57;96980.53;5060419;28;20345;-56
2023/04/13 12:57:00;;;;;;;;;;;;;;;10.34;55.90;96981.28;5066751;28;19947;-58
2023/04/13 12:59:28;;;;;;;;;;;;;;;10.28;57.54;96975.25;5066194;28;19928;-57
2023/04/13 13:01:57;;;;;;;;;;;;;;;10.35;56.08;96974.72;5059125;28;20420;-58
2023/04/13 13:04:29;;;;;;;;;;;;;;;10.46;55.48;96979.41;5067067;28;19928;-57
2023/04/13 13:06:57;;;;;;;;;;;;;;;10.62;55.02;96973.34;5069123;28;19924;-57
2023/04/13 13:09:25;;;;;;;;;;;;;;;10.85;55.07;96977.28;5050911;28;20425;-57
2023/04/13 13:11:55;;;;;;;;;;;;;;;10.98;52.69;96981.63;5063973;28;19924;-57
2023/04/13 13:14:23;;;;;;;;;;;;;;;11.14;53.46;96989.13;5048057;28;19928;-57
2023/04/13 13:16:51;;;;;;;;;;;;;;;11.12;53.42;96980.50;5066004;28;19960;-58
2023/04/13 13:19:19;;;;;;;;;;;;;;;11.17;53.75;96988.44;5056524;28;19929;-57
2023/04/13 13:21:51;;;;;;;;;;;;;;;11.04;53.18;96987.63;5058867;28;19994;-56
2023/04/13 13:24:19;;;;;;;;;;;;;;;11.06;53.82;96981.84;5061467;28;19935;-57
2023/04/13 13:26:47;;;;;;;;;;;;;;;11.07;54.43;96988.88;5061696;28;19924;-57
2023/04/13 13:29:36;;;;;;;;;;;;;;;10.99;53.68;96985.13;5064045;28;19979;-57
2023/04/13 13:32:04;;;;;;;;;;;;;;;10.95;54.01;96992.34;5054625;28;19928;-57
2023/04/13 13:34:32;;;;;;;;;;;;;;;10.96;53.40;96983.88;5054766;28;20447;-57
2023/04/13 13:37:01;;;;;;;;;;;;;;;10.95;53.52;96992.34;5057839;28;20213;-57
2023/04/13 13:39:30;;;;;;;;;;;;;;;10.99;53.85;96983.19;5068595;28;20021;-57
2023/04/13 13:41:58;;;;;;;;;;;;;;;11.06;52.59;96987.28;5062863;28;20316;-57
2023/04/13 13:44:26;;;;;;;;;;;;;;;11.10;52.06;96986.28;5075568;28;20397;-58
2023/04/13 13:46:53;;;;;;;;;;;;;;;11.17;52.18;96988.44;5057961;28;19964;-57